createdAt,value
2023-02-15T00:00:19.458Z,1.76
2023-02-15T00:00:50.843Z,1.74
2023-02-15T00:01:22.307Z,1.76
2023-02-15T00:01:53.912Z,1.73
2023-02-15T00:02:25.505Z,1.75
2023-02-15T00:02:56.906Z,1.74
2023-02-15T00:03:28.329Z,1.73
2023-02-15T00:03:59.988Z,1.74
2023-02-15T00:04:49.889Z,1.69
2023-02-15T00:05:21.262Z,1.70
2023-02-15T00:05:52.590Z,1.72
2023-02-15T00:06:24.243Z,1.68
2023-02-15T00:06:55.713Z,1.68
2023-02-15T00:07:27.099Z,1.68
2023-02-15T00:07:58.551Z,1.66
2023-02-15T00:08:30.427Z,1.70
2023-02-15T00:09:03.568Z,1.69
2023-02-15T00:09:34.907Z,1.70
2023-02-15T00:10:07.094Z,1.69
2023-02-15T00:10:38.565Z,1.66
2023-02-15T00:11:16.111Z,1.65
2023-02-15T00:11:51.191Z,1.63
2023-02-15T00:12:22.692Z,1.63
2023-02-15T00:12:54.076Z,1.67
2023-02-15T00:13:25.534Z,1.62
2023-02-15T00:13:57.019Z,1.59
2023-02-15T00:14:28.463Z,1.59
2023-02-15T00:14:59.850Z,1.59
2023-02-15T00:15:31.257Z,1.59
2023-02-15T00:16:08.172Z,1.65
2023-02-15T00:16:41.590Z,1.63
2023-02-15T00:17:13.006Z,1.61
2023-02-15T00:17:44.389Z,1.62
2023-02-15T00:18:15.758Z,1.63
2023-02-15T00:18:47.131Z,1.63
2023-02-15T00:19:20.688Z,1.63
2023-02-15T00:19:52.080Z,1.60
2023-02-15T00:20:23.531Z,1.61
2023-02-15T00:20:54.948Z,1.59
2023-02-15T00:21:26.341Z,1.57
2023-02-15T00:21:57.940Z,1.60
2023-02-15T00:22:29.544Z,1.60
2023-02-15T00:23:01.083Z,1.55
2023-02-15T00:23:32.656Z,1.58
2023-02-15T00:24:05.943Z,1.52
2023-02-15T00:24:37.391Z,1.55
2023-02-15T00:25:08.861Z,1.54
2023-02-15T00:25:40.225Z,1.51
2023-02-15T00:26:12.880Z,1.56
2023-02-15T00:26:45.757Z,1.55
2023-02-15T00:27:17.123Z,1.52
2023-02-15T00:27:48.582Z,1.55
2023-02-15T00:28:19.996Z,1.49
2023-02-15T00:28:51.888Z,1.51
2023-02-15T00:29:23.335Z,1.50
2023-02-15T00:29:54.959Z,1.53
2023-02-15T00:30:26.569Z,1.52
2023-02-15T00:31:16.292Z,1.51
2023-02-15T00:31:48.158Z,1.50
2023-02-15T00:32:19.509Z,1.49
2023-02-15T00:32:50.870Z,1.50
2023-02-15T00:33:25.870Z,1.47
2023-02-15T00:34:02.445Z,1.48
2023-02-15T00:34:33.868Z,1.49
2023-02-15T00:35:05.805Z,1.42
2023-02-15T00:35:37.214Z,1.43
2023-02-15T00:36:10.059Z,1.44
2023-02-15T00:36:41.501Z,1.42
2023-02-15T00:37:12.869Z,1.45
2023-02-15T00:37:44.282Z,1.39
2023-02-15T00:38:15.593Z,1.42
2023-02-15T00:38:47.000Z,1.42
2023-02-15T00:39:19.380Z,1.42
2023-02-15T00:39:50.733Z,1.43
2023-02-15T00:40:22.147Z,1.42
2023-02-15T00:41:01.669Z,1.41
2023-02-15T00:41:34.006Z,1.41
2023-02-15T00:42:05.497Z,1.37
2023-02-15T00:42:36.895Z,1.40
2023-02-15T00:43:08.490Z,1.37
2023-02-15T00:43:39.878Z,1.38
2023-02-15T00:44:11.892Z,1.36
2023-02-15T00:44:43.336Z,1.37
2023-02-15T00:45:16.554Z,1.31
2023-02-15T00:45:49.246Z,1.32
2023-02-15T00:46:20.779Z,1.33
2023-02-15T00:46:52.293Z,1.34
2023-02-15T00:47:25.478Z,1.31
2023-02-15T00:47:56.885Z,1.31
2023-02-15T00:48:28.687Z,1.31
2023-02-15T00:49:00.224Z,1.29
2023-02-15T00:49:31.606Z,1.29
2023-02-15T00:50:04.076Z,1.30
2023-02-15T00:50:35.472Z,1.29
2023-02-15T00:51:06.879Z,1.32
2023-02-15T00:51:38.661Z,1.29
2023-02-15T00:52:10.253Z,1.27
2023-02-15T00:52:41.608Z,1.26
2023-02-15T00:53:13.448Z,1.26
2023-02-15T00:53:45.510Z,1.30
2023-02-15T00:54:16.935Z,1.25
2023-02-15T00:54:48.350Z,1.29
2023-02-15T00:55:19.685Z,1.29
2023-02-15T00:55:51.181Z,1.26
2023-02-15T00:56:22.860Z,1.25
2023-02-15T00:56:54.319Z,1.27
2023-02-15T00:57:25.745Z,1.29
2023-02-15T00:57:57.162Z,1.26
2023-02-15T00:58:28.530Z,1.21
2023-02-15T00:58:59.943Z,1.21
2023-02-15T00:59:31.361Z,1.21
2023-02-15T01:00:03.182Z,1.23
2023-02-15T01:00:34.647Z,1.22
2023-02-15T01:01:08.648Z,1.24
2023-02-15T01:01:40.122Z,1.23
2023-02-15T01:02:11.563Z,1.23
2023-02-15T01:02:42.914Z,1.19
2023-02-15T01:03:16.853Z,1.22
2023-02-15T01:03:48.677Z,1.18
2023-02-15T01:04:20.165Z,1.16
2023-02-15T01:04:51.518Z,1.17
2023-02-15T01:05:22.876Z,1.15
2023-02-15T01:05:54.235Z,1.17
2023-02-15T01:06:25.649Z,1.17
2023-02-15T01:06:57.060Z,1.17
2023-02-15T01:07:28.449Z,1.11
2023-02-15T01:08:00.503Z,1.16
2023-02-15T01:08:32.091Z,1.13
2023-02-15T01:09:03.668Z,1.11
2023-02-15T01:09:35.295Z,1.15
2023-02-15T01:10:08.141Z,1.15
2023-02-15T01:10:39.881Z,1.15
2023-02-15T01:11:14.478Z,1.14
2023-02-15T01:11:45.833Z,1.07
2023-02-15T01:12:17.230Z,1.12
2023-02-15T01:12:49.016Z,1.10
2023-02-15T01:13:20.652Z,1.10
2023-02-15T01:13:57.150Z,1.11
2023-02-15T01:14:28.771Z,1.08
2023-02-15T01:15:00.152Z,1.09
2023-02-15T01:15:31.647Z,1.05
2023-02-15T01:16:05.193Z,1.05
2023-02-15T01:16:36.701Z,1.06
2023-02-15T01:17:08.038Z,1.02
2023-02-15T01:17:39.406Z,1.03
2023-02-15T01:18:12.454Z,1.00
2023-02-15T01:18:43.989Z,1.01
2023-02-15T01:19:15.791Z,1.00
2023-02-15T01:19:47.146Z,1.01
2023-02-15T01:20:20.359Z,1.01
2023-02-15T01:20:51.792Z,0.99
2023-02-15T01:21:24.800Z,0.99
2023-02-15T01:21:56.146Z,0.98
2023-02-15T01:22:27.767Z,0.98
2023-02-15T01:22:59.442Z,0.97
2023-02-15T01:23:30.843Z,0.97
2023-02-15T01:24:03.110Z,0.97
2023-02-15T01:24:34.511Z,0.95
2023-02-15T01:25:06.469Z,0.97
2023-02-15T01:25:38.021Z,0.94
2023-02-15T01:26:10.650Z,0.95
2023-02-15T01:26:42.212Z,0.94
2023-02-15T01:27:13.534Z,0.93
2023-02-15T01:27:45.939Z,0.94
2023-02-15T01:28:17.479Z,0.94
2023-02-15T01:28:49.158Z,0.91
2023-02-15T01:29:20.589Z,0.90
2023-02-15T01:29:52.042Z,0.93
2023-02-15T01:30:23.493Z,0.85
2023-02-15T01:30:54.920Z,0.88
2023-02-15T01:31:26.500Z,0.87
2023-02-15T01:31:58.007Z,0.89
2023-02-15T01:32:29.453Z,0.90
2023-02-15T01:33:01.706Z,0.89
2023-02-15T01:33:33.356Z,0.89
2023-02-15T01:34:04.718Z,0.89
2023-02-15T01:34:36.120Z,0.88
2023-02-15T01:35:08.244Z,0.90
2023-02-15T01:35:40.094Z,0.84
2023-02-15T01:36:11.856Z,0.83
2023-02-15T01:36:43.210Z,0.83
2023-02-15T01:37:14.687Z,0.88
2023-02-15T01:37:46.172Z,0.84
2023-02-15T01:38:17.540Z,0.85
2023-02-15T01:38:50.324Z,0.85
2023-02-15T01:39:21.824Z,0.80
2023-02-15T01:39:54.469Z,0.83
2023-02-15T01:40:26.485Z,0.78
2023-02-15T01:41:17.837Z,0.78
2023-02-15T01:41:49.312Z,0.79
2023-02-15T01:42:24.648Z,0.79
2023-02-15T01:42:56.876Z,0.80
2023-02-15T01:43:41.995Z,0.79
2023-02-15T01:44:50.193Z,0.80
2023-02-15T01:45:27.626Z,0.78
2023-02-15T01:45:59.340Z,0.76
2023-02-15T01:46:52.677Z,0.78
2023-02-15T01:47:39.042Z,0.77
2023-02-15T01:48:20.462Z,0.76
2023-02-15T01:48:58.248Z,0.76
2023-02-15T01:49:29.632Z,0.73
2023-02-15T01:50:10.807Z,0.74
2023-02-15T01:50:45.325Z,0.74
2023-02-15T01:51:21.062Z,0.74
2023-02-15T01:51:53.741Z,0.72
2023-02-15T01:52:25.238Z,0.72
2023-02-15T01:53:19.901Z,0.72
2023-02-15T01:54:06.901Z,0.72
2023-02-15T01:54:41.761Z,0.70
2023-02-15T01:55:13.635Z,0.68
2023-02-15T01:55:56.440Z,0.71
2023-02-15T01:56:33.247Z,0.69
2023-02-15T01:57:10.140Z,0.67
2023-02-15T01:57:42.889Z,0.68
2023-02-15T01:58:15.204Z,0.67
2023-02-15T01:58:48.405Z,0.67
2023-02-15T01:59:22.882Z,0.65
2023-02-15T01:59:59.131Z,0.62
2023-02-15T02:00:31.199Z,0.63
2023-02-15T02:01:04.909Z,0.64
2023-02-15T02:01:36.537Z,0.63
2023-02-15T02:02:10.725Z,0.63
2023-02-15T02:02:46.192Z,0.61
2023-02-15T02:03:18.619Z,0.58
2023-02-15T02:04:08.068Z,0.61
2023-02-15T02:04:47.393Z,0.60
2023-02-15T02:05:18.868Z,0.57
2023-02-15T02:05:50.400Z,0.54
2023-02-15T02:06:22.886Z,0.58
2023-02-15T02:06:55.724Z,0.57
2023-02-15T02:07:34.988Z,0.55
2023-02-15T02:08:09.387Z,0.54
2023-02-15T02:08:42.563Z,0.57
2023-02-15T02:09:14.646Z,0.53
2023-02-15T02:09:46.513Z,0.55
2023-02-15T02:10:21.228Z,0.54
2023-02-15T02:10:52.723Z,0.54
2023-02-15T02:11:24.206Z,0.54
2023-02-15T02:11:55.762Z,0.48
2023-02-15T02:12:27.458Z,0.49
2023-02-15T02:13:03.266Z,0.47
2023-02-15T02:13:34.642Z,0.44
2023-02-15T02:14:06.057Z,0.48
2023-02-15T02:14:40.030Z,0.49
2023-02-15T02:15:12.352Z,0.45
2023-02-15T02:15:59.749Z,0.48
2023-02-15T02:16:48.782Z,0.47
2023-02-15T02:17:44.824Z,0.50
2023-02-15T02:18:50.054Z,0.50
2023-02-15T02:19:58.941Z,0.49
2023-02-15T02:21:07.777Z,0.48
2023-02-15T02:21:48.967Z,0.47
2023-02-15T02:22:26.335Z,0.46
2023-02-15T02:23:25.850Z,0.46
2023-02-15T02:24:24.266Z,0.44
2023-02-15T02:25:24.632Z,0.43
2023-02-15T02:26:21.180Z,0.42
2023-02-15T02:27:02.679Z,0.41
2023-02-15T02:28:03.130Z,0.40
2023-02-15T02:29:23.051Z,0.40
2023-02-15T02:30:12.854Z,0.39
2023-02-15T02:30:59.459Z,0.39
2023-02-15T02:31:49.215Z,0.38
2023-02-15T02:32:42.182Z,0.38
2023-02-15T02:33:25.302Z,0.38
2023-02-15T02:34:11.443Z,0.37
2023-02-15T02:34:54.432Z,0.37
2023-02-15T02:35:42.387Z,0.35
2023-02-15T02:36:26.465Z,0.35
2023-02-15T02:37:17.043Z,0.33
2023-02-15T02:37:52.654Z,0.35
2023-02-15T02:38:29.040Z,0.33
2023-02-15T02:39:12.482Z,0.33
2023-02-15T02:40:05.110Z,0.31
2023-02-15T02:41:13.945Z,0.32
2023-02-15T02:41:52.800Z,0.31
2023-02-15T02:42:32.229Z,0.30
2023-02-15T02:43:17.234Z,0.30
2023-02-15T02:44:11.565Z,0.29
2023-02-15T02:45:01.278Z,0.30
2023-02-15T02:45:45.116Z,0.29
2023-02-15T02:46:30.344Z,0.29
2023-02-15T02:47:14.371Z,0.28
2023-02-15T02:47:52.017Z,0.28
2023-02-15T02:48:27.961Z,0.26
2023-02-15T02:48:59.694Z,0.26
2023-02-15T02:49:33.682Z,0.25
2023-02-15T02:50:08.245Z,0.25
2023-02-15T02:50:41.042Z,0.24
2023-02-15T02:51:12.427Z,0.23
2023-02-15T02:51:43.806Z,0.23
2023-02-15T02:52:38.573Z,0.23
2023-02-15T02:53:11.147Z,0.22
2023-02-15T02:53:42.627Z,0.19
2023-02-15T02:54:14.089Z,0.19
2023-02-15T02:54:46.074Z,0.18
2023-02-15T02:55:35.078Z,0.21
2023-02-15T02:56:19.858Z,0.21
2023-02-15T02:56:53.405Z,0.21
2023-02-15T02:57:27.435Z,0.16
2023-02-15T02:58:14.673Z,0.14
2023-02-15T02:58:56.264Z,0.14
2023-02-15T02:59:37.076Z,0.17
2023-02-15T03:00:09.983Z,0.17
2023-02-15T03:00:47.132Z,0.15
2023-02-15T03:01:25.657Z,0.15
2023-02-15T03:02:23.812Z,0.16
2023-02-15T03:03:05.826Z,0.13
2023-02-15T03:03:40.523Z,0.15
2023-02-15T03:04:26.018Z,0.13
2023-02-15T03:05:07.075Z,0.13
2023-02-15T03:05:45.418Z,0.12
2023-02-15T03:06:21.854Z,0.11
2023-02-15T03:06:59.075Z,0.12
2023-02-15T03:07:32.568Z,0.11
2023-02-15T03:08:11.091Z,0.08
2023-02-15T03:08:52.102Z,0.10
2023-02-15T03:09:50.789Z,0.07
2023-02-15T03:10:24.682Z,0.09
2023-02-15T03:10:59.533Z,0.09
2023-02-15T03:11:31.227Z,0.08
2023-02-15T03:12:05.919Z,0.05
2023-02-15T03:12:41.360Z,0.06
2023-02-15T03:13:12.887Z,0.06
2023-02-15T03:13:47.524Z,0.06
2023-02-15T03:14:20.442Z,0.00
2023-02-15T03:15:05.051Z,0.07
2023-02-15T03:15:59.158Z,0.06
2023-02-15T03:16:30.835Z,0.05
2023-02-15T03:17:05.211Z,0.04
2023-02-15T03:17:41.687Z,0.04
2023-02-15T03:18:13.579Z,-0.03
2023-02-15T03:18:53.773Z,0.03
2023-02-15T03:19:30.713Z,0.01
2023-02-15T03:20:08.018Z,0.02
2023-02-15T03:20:39.631Z,0.02
2023-02-15T03:21:22.931Z,0.02
2023-02-15T03:22:10.079Z,0.00
2023-02-15T03:22:54.258Z,0.02
2023-02-15T03:23:28.769Z,-0.01
2023-02-15T03:24:16.735Z,-0.02
2023-02-15T03:24:55.055Z,-0.02
2023-02-15T03:25:32.469Z,-0.03
2023-02-15T03:26:06.804Z,-0.04
2023-02-15T03:26:40.322Z,-0.06
2023-02-15T03:27:18.569Z,-0.05
2023-02-15T03:27:56.363Z,-0.03
2023-02-15T03:28:37.292Z,-0.05
2023-02-15T03:29:10.153Z,-0.06
2023-02-15T03:29:41.837Z,-0.08
2023-02-15T03:30:16.018Z,-0.06
2023-02-15T03:30:52.623Z,-0.07
2023-02-15T03:31:27.629Z,-0.12
2023-02-15T03:32:03.886Z,-0.07
2023-02-15T03:32:39.367Z,-0.08
2023-02-15T03:33:12.526Z,-0.10
2023-02-15T03:33:52.108Z,-0.08
2023-02-15T03:34:23.667Z,-0.08
2023-02-15T03:34:56.058Z,-0.10
2023-02-15T03:35:38.308Z,-0.08
2023-02-15T03:36:20.117Z,-0.09
2023-02-15T03:37:12.982Z,-0.09
2023-02-15T03:37:50.111Z,-0.12
2023-02-15T03:38:30.462Z,-0.11
2023-02-15T03:39:21.654Z,-0.11
2023-02-15T03:40:23.213Z,-0.12
2023-02-15T03:41:11.720Z,-0.13
2023-02-15T03:42:03.310Z,-0.13
2023-02-15T03:42:40.139Z,-0.15
2023-02-15T03:43:11.423Z,-0.15
2023-02-15T03:43:58.608Z,-0.15
2023-02-15T03:44:33.276Z,-0.15
2023-02-15T03:45:10.161Z,-0.14
2023-02-15T03:45:55.544Z,-0.15
2023-02-15T03:46:48.388Z,-0.16
2023-02-15T03:47:24.272Z,-0.16
2023-02-15T03:47:58.997Z,-0.17
2023-02-15T03:48:39.290Z,-0.18
2023-02-15T03:49:21.810Z,-0.20
2023-02-15T03:50:29.024Z,-0.19
2023-02-15T03:51:27.454Z,-0.20
2023-02-15T03:52:01.250Z,-0.22
2023-02-15T03:52:34.940Z,-0.22
2023-02-15T03:53:10.725Z,-0.22
2023-02-15T03:53:45.446Z,-0.23
2023-02-15T03:54:41.741Z,-0.23
2023-02-15T03:55:13.304Z,-0.24
2023-02-15T03:55:48.613Z,-0.27
2023-02-15T03:56:20.190Z,-0.27
2023-02-15T03:57:11.524Z,-0.26
2023-02-15T03:58:02.394Z,-0.27
2023-02-15T03:58:52.560Z,-0.27
2023-02-15T03:59:42.419Z,-0.28
2023-02-15T04:00:42.459Z,-0.28
2023-02-15T04:01:56.697Z,-0.29
2023-02-15T04:02:39.216Z,-0.31
2023-02-15T04:03:16.509Z,-0.31
2023-02-15T04:03:58.646Z,-0.32
2023-02-15T04:04:49.677Z,-0.31
2023-02-15T04:05:21.113Z,-0.35
2023-02-15T04:05:52.753Z,-0.35
2023-02-15T04:06:24.202Z,-0.35
2023-02-15T04:06:55.542Z,-0.37
2023-02-15T04:07:26.909Z,-0.35
2023-02-15T04:07:58.300Z,-0.38
2023-02-15T04:08:48.435Z,-0.36
2023-02-15T04:09:38.397Z,-0.36
2023-02-15T04:10:28.373Z,-0.36
2023-02-15T04:10:59.758Z,-0.36
2023-02-15T04:11:31.513Z,-0.37
2023-02-15T04:12:02.970Z,-0.37
2023-02-15T04:12:34.320Z,-0.40
2023-02-15T04:13:05.666Z,-0.37
2023-02-15T04:13:37.065Z,-0.38
2023-02-15T04:14:26.859Z,-0.38
2023-02-15T04:15:16.652Z,-0.39
2023-02-15T04:16:07.351Z,-0.38
2023-02-15T04:16:39.388Z,-0.40
2023-02-15T04:17:10.921Z,-0.40
2023-02-15T04:17:42.233Z,-0.41
2023-02-15T04:18:15.090Z,-0.41
2023-02-15T04:19:04.906Z,-0.39
2023-02-15T04:19:55.526Z,-0.40
2023-02-15T04:20:45.466Z,-0.41
2023-02-15T04:21:35.874Z,-0.42
2023-02-15T04:22:25.866Z,-0.41
2023-02-15T04:23:15.744Z,-0.43
2023-02-15T04:24:05.381Z,-0.43
2023-02-15T04:24:55.270Z,-0.44
2023-02-15T04:25:26.659Z,-0.44
2023-02-15T04:25:58.012Z,-0.44
2023-02-15T04:26:29.374Z,-0.45
2023-02-15T04:27:01.417Z,-0.47
2023-02-15T04:27:32.796Z,-0.46
2023-02-15T04:28:04.383Z,-0.51
2023-02-15T04:28:35.734Z,-0.50
2023-02-15T04:29:07.131Z,-0.50
2023-02-15T04:29:38.487Z,-0.54
2023-02-15T04:30:11.577Z,-0.51
2023-02-15T04:30:42.939Z,-0.53
2023-02-15T04:31:14.355Z,-0.52
2023-02-15T04:31:45.858Z,-0.55
2023-02-15T04:32:17.306Z,-0.53
2023-02-15T04:32:49.074Z,-0.53
2023-02-15T04:33:20.646Z,-0.53
2023-02-15T04:33:51.962Z,-0.55
2023-02-15T04:34:23.449Z,-0.53
2023-02-15T04:34:54.769Z,-0.54
2023-02-15T04:35:26.786Z,-0.52
2023-02-15T04:35:58.244Z,-0.52
2023-02-15T04:36:29.683Z,-0.53
2023-02-15T04:37:01.050Z,-0.52
2023-02-15T04:37:32.976Z,-0.52
2023-02-15T04:38:04.413Z,-0.52
2023-02-15T04:38:35.736Z,-0.52
2023-02-15T04:39:07.975Z,-0.52
2023-02-15T04:39:39.424Z,-0.56
2023-02-15T04:40:15.375Z,-0.54
2023-02-15T04:40:51.802Z,-0.53
2023-02-15T04:41:23.143Z,-0.53
2023-02-15T04:41:54.548Z,-0.52
2023-02-15T04:42:27.162Z,-0.52
2023-02-15T04:42:58.551Z,-0.55
2023-02-15T04:43:29.915Z,-0.52
2023-02-15T04:44:02.012Z,-0.55
2023-02-15T04:44:33.474Z,-0.54
2023-02-15T04:45:05.236Z,-0.51
2023-02-15T04:45:36.656Z,-0.52
2023-02-15T04:46:08.291Z,-0.53
2023-02-15T04:46:39.672Z,-0.55
2023-02-15T04:47:11.087Z,-0.52
2023-02-15T04:47:42.583Z,-0.50
2023-02-15T04:48:13.969Z,-0.50
2023-02-15T04:48:45.365Z,-0.55
2023-02-15T04:49:16.981Z,-0.55
2023-02-15T04:49:48.477Z,-0.56
2023-02-15T04:50:19.846Z,-0.52
2023-02-15T04:50:51.238Z,-0.54
2023-02-15T04:51:22.726Z,-0.52
2023-02-15T04:51:54.127Z,-0.53
2023-02-15T04:52:25.704Z,-0.54
2023-02-15T04:52:57.064Z,-0.56
2023-02-15T04:53:28.421Z,-0.53
2023-02-15T04:53:59.950Z,-0.53
2023-02-15T04:54:31.292Z,-0.55
2023-02-15T04:55:02.777Z,-0.53
2023-02-15T04:55:34.181Z,-0.54
2023-02-15T04:56:05.678Z,-0.58
2023-02-15T04:56:38.747Z,-0.56
2023-02-15T04:57:10.633Z,-0.55
2023-02-15T04:57:42.000Z,-0.60
2023-02-15T04:58:13.409Z,-0.57
2023-02-15T04:58:44.803Z,-0.57
2023-02-15T04:59:16.520Z,-0.56
2023-02-15T04:59:47.905Z,-0.58
2023-02-15T05:00:19.658Z,-0.58
2023-02-15T05:00:51.129Z,-0.59
2023-02-15T05:01:22.652Z,-0.56
2023-02-15T05:01:54.244Z,-0.57
2023-02-15T05:02:25.820Z,-0.58
2023-02-15T05:02:57.183Z,-0.60
2023-02-15T05:03:28.593Z,-0.55
2023-02-15T05:04:00.031Z,-0.56
2023-02-15T05:04:31.819Z,-0.58
2023-02-15T05:05:03.263Z,-0.60
2023-02-15T05:05:34.590Z,-0.62
2023-02-15T05:06:06.278Z,-0.56
2023-02-15T05:06:37.710Z,-0.59
2023-02-15T05:07:09.136Z,-0.58
2023-02-15T05:07:40.520Z,-0.62
2023-02-15T05:08:11.903Z,-0.61
2023-02-15T05:08:43.263Z,-0.57
2023-02-15T05:09:16.127Z,-0.60
2023-02-15T05:09:47.538Z,-0.58
2023-02-15T05:10:19.100Z,-0.61
2023-02-15T05:10:50.666Z,-0.58
2023-02-15T05:11:22.219Z,-0.59
2023-02-15T05:11:53.660Z,-0.58
2023-02-15T05:12:25.110Z,-0.63
2023-02-15T05:12:56.798Z,-0.63
2023-02-15T05:13:28.408Z,-0.60
2023-02-15T05:13:59.803Z,-0.61
2023-02-15T05:14:31.245Z,-0.64
2023-02-15T05:15:02.819Z,-0.62
2023-02-15T05:15:34.204Z,-0.61
2023-02-15T05:16:05.783Z,-0.62
2023-02-15T05:16:37.364Z,-0.62
2023-02-15T05:17:08.803Z,-0.62
2023-02-15T05:17:40.305Z,-0.62
2023-02-15T05:18:11.729Z,-0.63
2023-02-15T05:18:43.148Z,-0.63
2023-02-15T05:19:14.496Z,-0.64
2023-02-15T05:19:45.844Z,-0.65
2023-02-15T05:20:17.340Z,-0.64
2023-02-15T05:20:49.378Z,-0.68
2023-02-15T05:21:20.733Z,-0.64
2023-02-15T05:21:52.546Z,-0.63
2023-02-15T05:22:23.935Z,-0.66
2023-02-15T05:22:55.646Z,-0.64
2023-02-15T05:23:27.097Z,-0.65
2023-02-15T05:23:58.532Z,-0.66
2023-02-15T05:24:48.664Z,-0.66
2023-02-15T05:25:38.553Z,-0.65
2023-02-15T05:26:35.134Z,-0.66
2023-02-15T05:27:25.478Z,-0.66
2023-02-15T05:28:15.265Z,-0.67
2023-02-15T05:28:46.665Z,-0.68
2023-02-15T05:29:18.031Z,-0.69
2023-02-15T05:29:49.503Z,-0.69
2023-02-15T05:30:21.064Z,-0.71
2023-02-15T05:31:04.665Z,-0.70
2023-02-15T05:31:36.838Z,-0.71
2023-02-15T05:32:08.602Z,-0.71
2023-02-15T05:32:40.411Z,-0.70
2023-02-15T05:33:11.855Z,-0.71
2023-02-15T05:33:44.373Z,-0.68
2023-02-15T05:34:15.693Z,-0.71
2023-02-15T05:34:47.122Z,-0.71
2023-02-15T05:35:19.248Z,-0.70
2023-02-15T05:35:52.009Z,-0.71
2023-02-15T05:36:23.663Z,-0.72
2023-02-15T05:36:55.085Z,-0.73
2023-02-15T05:37:26.718Z,-0.74
2023-02-15T05:37:58.042Z,-0.73
2023-02-15T05:38:29.944Z,-0.76
2023-02-15T05:39:01.342Z,-0.75
2023-02-15T05:39:32.735Z,-0.76
2023-02-15T05:40:04.474Z,-0.78
2023-02-15T05:40:35.998Z,-0.80
2023-02-15T05:41:08.828Z,-0.77
2023-02-15T05:41:40.259Z,-0.77
2023-02-15T05:42:11.873Z,-0.80
2023-02-15T05:42:43.364Z,-0.77
2023-02-15T05:43:14.768Z,-0.76
2023-02-15T05:43:46.214Z,-0.78
2023-02-15T05:44:17.671Z,-0.77
2023-02-15T05:44:49.040Z,-0.79
2023-02-15T05:45:20.727Z,-0.76
2023-02-15T05:45:54.415Z,-0.80
2023-02-15T05:46:25.846Z,-0.78
2023-02-15T05:46:57.255Z,-0.76
2023-02-15T05:47:28.626Z,-0.75
2023-02-15T05:48:00.152Z,-0.76
2023-02-15T05:48:32.737Z,-0.76
2023-02-15T05:49:04.180Z,-0.76
2023-02-15T05:49:38.141Z,-0.77
2023-02-15T05:50:10.097Z,-0.77
2023-02-15T05:50:41.517Z,-0.79
2023-02-15T05:51:14.961Z,-0.77
2023-02-15T05:51:46.459Z,-0.79
2023-02-15T05:52:17.972Z,-0.77
2023-02-15T05:52:51.294Z,-0.78
2023-02-15T05:53:23.704Z,-0.76
2023-02-15T05:53:57.533Z,-0.78
2023-02-15T05:54:34.204Z,-0.81
2023-02-15T05:55:09.789Z,-0.81
2023-02-15T05:55:41.625Z,-0.76
2023-02-15T05:56:13.459Z,-0.80
2023-02-15T05:56:44.822Z,-0.77
2023-02-15T05:57:16.296Z,-0.76
2023-02-15T05:57:47.747Z,-0.77
2023-02-15T05:58:19.351Z,-0.79
2023-02-15T05:58:53.684Z,-0.78
2023-02-15T05:59:25.147Z,-0.78
2023-02-15T05:59:56.714Z,-0.77
2023-02-15T06:00:28.095Z,-0.79
2023-02-15T06:00:59.679Z,-0.81
2023-02-15T06:01:31.042Z,-0.79
2023-02-15T06:02:02.543Z,-0.82
2023-02-15T06:02:37.943Z,-0.79
2023-02-15T06:03:09.423Z,-0.81
2023-02-15T06:03:41.475Z,-0.78
2023-02-15T06:04:13.458Z,-0.80
2023-02-15T06:04:44.975Z,-0.83
2023-02-15T06:05:16.396Z,-0.80
2023-02-15T06:05:48.008Z,-0.80
2023-02-15T06:06:19.382Z,-0.80
2023-02-15T06:06:50.870Z,-0.81
2023-02-15T06:07:22.196Z,-0.81
2023-02-15T06:07:53.533Z,-0.80
2023-02-15T06:08:24.860Z,-0.80
2023-02-15T06:08:56.205Z,-0.84
2023-02-15T06:09:27.694Z,-0.82
2023-02-15T06:09:59.108Z,-0.80
2023-02-15T06:10:30.705Z,-0.83
2023-02-15T06:11:02.492Z,-0.81
2023-02-15T06:11:33.893Z,-0.81
2023-02-15T06:12:05.420Z,-0.82
2023-02-15T06:12:37.074Z,-0.81
2023-02-15T06:13:09.005Z,-0.81
2023-02-15T06:13:40.478Z,-0.82
2023-02-15T06:14:12.116Z,-0.85
2023-02-15T06:14:43.778Z,-0.80
2023-02-15T06:15:15.269Z,-0.82
2023-02-15T06:15:46.831Z,-0.81
2023-02-15T06:16:18.344Z,-0.83
2023-02-15T06:16:49.734Z,-0.81
2023-02-15T06:17:22.520Z,-0.81
2023-02-15T06:17:53.905Z,-0.82
2023-02-15T06:18:25.575Z,-0.81
2023-02-15T06:18:57.134Z,-0.84
2023-02-15T06:19:28.538Z,-0.82
2023-02-15T06:19:59.918Z,-0.81
2023-02-15T06:20:31.299Z,-0.83
2023-02-15T06:21:03.174Z,-0.82
2023-02-15T06:21:34.599Z,-0.83
2023-02-15T06:22:07.268Z,-0.82
2023-02-15T06:22:38.610Z,-0.82
2023-02-15T06:23:09.984Z,-0.83
2023-02-15T06:23:41.540Z,-0.83
2023-02-15T06:24:12.963Z,-0.82
2023-02-15T06:24:44.402Z,-0.87
2023-02-15T06:25:15.918Z,-0.84
2023-02-15T06:25:47.436Z,-0.85
2023-02-15T06:26:19.253Z,-0.85
2023-02-15T06:26:50.598Z,-0.88
2023-02-15T06:27:21.996Z,-0.87
2023-02-15T06:27:53.362Z,-0.85
2023-02-15T06:28:26.431Z,-0.83
2023-02-15T06:28:57.922Z,-0.85
2023-02-15T06:29:29.381Z,-0.84
2023-02-15T06:30:00.840Z,-0.87
2023-02-15T06:30:32.574Z,-0.84
2023-02-15T06:31:04.765Z,-0.83
2023-02-15T06:31:36.369Z,-0.86
2023-02-15T06:32:10.136Z,-0.84
2023-02-15T06:32:41.886Z,-0.84
2023-02-15T06:33:13.317Z,-0.82
2023-02-15T06:33:44.926Z,-0.84
2023-02-15T06:34:16.506Z,-0.82
2023-02-15T06:34:48.878Z,-0.82
2023-02-15T06:35:20.353Z,-0.82
2023-02-15T06:35:51.744Z,-0.83
2023-02-15T06:36:23.125Z,-0.83
2023-02-15T06:36:54.639Z,-0.82
2023-02-15T06:37:26.225Z,-0.87
2023-02-15T06:37:57.630Z,-0.81
2023-02-15T06:38:28.976Z,-0.82
2023-02-15T06:39:00.399Z,-0.85
2023-02-15T06:39:32.563Z,-0.83
2023-02-15T06:40:05.003Z,-0.80
2023-02-15T06:40:36.435Z,-0.80
2023-02-15T06:41:07.833Z,-0.80
2023-02-15T06:41:40.103Z,-0.80
2023-02-15T06:42:11.495Z,-0.82
2023-02-15T06:42:43.337Z,-0.80
2023-02-15T06:43:14.753Z,-0.82
2023-02-15T06:43:46.154Z,-0.79
2023-02-15T06:44:17.545Z,-0.82
2023-02-15T06:44:49.038Z,-0.79
2023-02-15T06:45:20.426Z,-0.78
2023-02-15T06:45:51.778Z,-0.82
2023-02-15T06:46:23.409Z,-0.78
2023-02-15T06:46:54.886Z,-0.80
2023-02-15T06:47:26.300Z,-0.78
2023-02-15T06:47:57.720Z,-0.79
2023-02-15T06:48:29.134Z,-0.81
2023-02-15T06:49:01.158Z,-0.81
2023-02-15T06:49:32.622Z,-0.77
2023-02-15T06:50:05.977Z,-0.77
2023-02-15T06:50:37.590Z,-0.75
2023-02-15T06:51:09.186Z,-0.79
2023-02-15T06:51:40.582Z,-0.79
2023-02-15T06:52:14.191Z,-0.79
2023-02-15T06:52:45.795Z,-0.73
2023-02-15T06:53:17.323Z,-0.76
2023-02-15T06:53:48.722Z,-0.73
2023-02-15T06:54:20.254Z,-0.72
2023-02-15T06:54:51.828Z,-0.73
2023-02-15T06:55:23.348Z,-0.72
2023-02-15T06:56:07.369Z,-0.72
2023-02-15T06:56:39.587Z,-0.71
2023-02-15T06:57:11.308Z,-0.72
2023-02-15T06:57:42.776Z,-0.72
2023-02-15T06:58:14.180Z,-0.72
2023-02-15T06:58:47.026Z,-0.71
2023-02-15T06:59:18.430Z,-0.72
2023-02-15T06:59:49.886Z,-0.75
2023-02-15T07:00:23.103Z,-0.72
2023-02-15T07:00:54.562Z,-0.72
2023-02-15T07:01:25.959Z,-0.72
2023-02-15T07:01:57.547Z,-0.72
2023-02-15T07:02:29.326Z,-0.72
2023-02-15T07:03:01.792Z,-0.71
2023-02-15T07:03:34.026Z,-0.70
2023-02-15T07:04:05.456Z,-0.69
2023-02-15T07:04:36.948Z,-0.75
2023-02-15T07:05:08.647Z,-0.73
2023-02-15T07:05:40.220Z,-0.68
2023-02-15T07:06:12.262Z,-0.70
2023-02-15T07:06:44.165Z,-0.70
2023-02-15T07:07:15.619Z,-0.68
2023-02-15T07:07:47.177Z,-0.68
2023-02-15T07:08:20.940Z,-0.69
2023-02-15T07:08:52.391Z,-0.68
2023-02-15T07:09:23.926Z,-0.67
2023-02-15T07:09:55.334Z,-0.69
2023-02-15T07:10:27.780Z,-0.67
2023-02-15T07:11:19.252Z,-0.67
2023-02-15T07:12:09.426Z,-0.69
2023-02-15T07:12:43.792Z,-0.70
2023-02-15T07:13:15.153Z,-0.68
2023-02-15T07:13:47.410Z,-0.68
2023-02-15T07:14:19.281Z,-0.68
2023-02-15T07:14:50.698Z,-0.67
2023-02-15T07:15:22.809Z,-0.73
2023-02-15T07:15:54.251Z,-0.70
2023-02-15T07:16:25.681Z,-0.67
2023-02-15T07:16:57.101Z,-0.66
2023-02-15T07:17:36.826Z,-0.65
2023-02-15T07:18:09.978Z,-0.65
2023-02-15T07:18:41.415Z,-0.65
2023-02-15T07:19:12.981Z,-0.66
2023-02-15T07:19:44.479Z,-0.71
2023-02-15T07:20:24.014Z,-0.63
2023-02-15T07:20:55.478Z,-0.62
2023-02-15T07:21:27.111Z,-0.65
2023-02-15T07:21:58.539Z,-0.63
2023-02-15T07:22:29.978Z,-0.61
2023-02-15T07:23:01.421Z,-0.59
2023-02-15T07:23:32.843Z,-0.62
2023-02-15T07:24:04.535Z,-0.60
2023-02-15T07:24:36.022Z,-0.60
2023-02-15T07:25:10.511Z,-0.58
2023-02-15T07:25:41.954Z,-0.56
2023-02-15T07:26:13.346Z,-0.55
2023-02-15T07:26:44.796Z,-0.55
2023-02-15T07:27:16.613Z,-0.58
2023-02-15T07:27:48.142Z,-0.53
2023-02-15T07:28:20.118Z,-0.55
2023-02-15T07:28:51.649Z,-0.51
2023-02-15T07:29:24.099Z,-0.52
2023-02-15T07:29:55.659Z,-0.55
2023-02-15T07:30:27.867Z,-0.54
2023-02-15T07:30:59.577Z,-0.51
2023-02-15T07:31:31.206Z,-0.51
2023-02-15T07:32:02.623Z,-0.46
2023-02-15T07:32:34.759Z,-0.45
2023-02-15T07:33:24.511Z,-0.45
2023-02-15T07:33:55.982Z,-0.45
2023-02-15T07:34:27.360Z,-0.44
2023-02-15T07:34:59.770Z,-0.43
2023-02-15T07:35:31.304Z,-0.44
2023-02-15T07:36:05.013Z,-0.42